sensor_id;sensor_type;location;lat;lon;timestamp;P1;durP1;ratioP1;P2;durP2;ratioP2
63189;SDS011;49286;44.460;26.114;2022-11-06T00:04:47;53.40;;;37.95;;
63189;SDS011;49286;44.460;26.114;2022-11-06T00:10:34;52.00;;;36.85;;
63189;SDS011;49286;44.460;26.114;2022-11-06T00:13:00;54.42;;;39.35;;
63189;SDS011;49286;44.460;26.114;2022-11-06T00:15:25;56.72;;;36.33;;
63189;SDS011;49286;44.460;26.114;2022-11-06T00:18:09;54.28;;;39.22;;
63189;SDS011;49286;44.460;26.114;2022-11-06T00:20:35;64.57;;;41.42;;
63189;SDS011;49286;44.460;26.114;2022-11-06T00:26:24;48.38;;;36.92;;
63189;SDS011;49286;44.460;26.114;2022-11-06T00:32:12;63.15;;;40.53;;
63189;SDS011;49286;44.460;26.114;2022-11-06T00:37:59;61.42;;;40.75;;
63189;SDS011;49286;44.460;26.114;2022-11-06T00:40:25;66.93;;;39.97;;
63189;SDS011;49286;44.460;26.114;2022-11-06T00:42:52;60.35;;;41.95;;
63189;SDS011;49286;44.460;26.114;2022-11-06T00:45:18;60.00;;;41.03;;
63189;SDS011;49286;44.460;26.114;2022-11-06T00:47:43;66.40;;;42.97;;
63189;SDS011;49286;44.460;26.114;2022-11-06T00:50:09;65.15;;;40.03;;
63189;SDS011;49286;44.460;26.114;2022-11-06T00:52:34;68.38;;;40.58;;
63189;SDS011;49286;44.460;26.114;2022-11-06T00:55:00;71.15;;;44.28;;
63189;SDS011;49286;44.460;26.114;2022-11-06T00:57:25;70.63;;;41.17;;
63189;SDS011;49286;44.460;26.114;2022-11-06T00:59:51;69.13;;;42.42;;
63189;SDS011;49286;44.460;26.114;2022-11-06T01:02:16;69.10;;;44.45;;
63189;SDS011;49286;44.460;26.114;2022-11-06T01:04:43;67.18;;;40.83;;
63189;SDS011;49286;44.460;26.114;2022-11-06T01:07:09;70.80;;;41.42;;
63189;SDS011;49286;44.460;26.114;2022-11-06T01:09:34;59.72;;;37.67;;
63189;SDS011;49286;44.460;26.114;2022-11-06T01:14:29;58.78;;;39.60;;
63189;SDS011;49286;44.460;26.114;2022-11-06T01:20:23;55.55;;;39.97;;
63189;SDS011;49286;44.460;26.114;2022-11-06T01:26:10;58.38;;;39.42;;
63189;SDS011;49286;44.460;26.114;2022-11-06T01:28:37;64.50;;;39.40;;
63189;SDS011;49286;44.460;26.114;2022-11-06T01:31:07;55.22;;;39.58;;
63189;SDS011;49286;44.460;26.114;2022-11-06T01:43:28;59.90;;;39.67;;
63189;SDS011;49286;44.460;26.114;2022-11-06T01:46:12;53.22;;;37.80;;
63189;SDS011;49286;44.460;26.114;2022-11-06T01:48:40;47.90;;;36.40;;
63189;SDS011;49286;44.460;26.114;2022-11-06T01:54:30;69.88;;;38.08;;
63189;SDS011;49286;44.460;26.114;2022-11-06T02:00:20;51.38;;;36.95;;
63189;SDS011;49286;44.460;26.114;2022-11-06T02:06:07;57.70;;;36.28;;
63189;SDS011;49286;44.460;26.114;2022-11-06T02:12:02;46.35;;;35.42;;
63189;SDS011;49286;44.460;26.114;2022-11-06T02:14:42;67.65;;;36.40;;
63189;SDS011;49286;44.460;26.114;2022-11-06T02:20:23;57.55;;;37.05;;
63189;SDS011;49286;44.460;26.114;2022-11-06T02:32:32;68.07;;;37.88;;
63189;SDS011;49286;44.460;26.114;2022-11-06T02:35:02;69.57;;;40.50;;
63189;SDS011;49286;44.460;26.114;2022-11-06T02:37:37;68.25;;;37.83;;
63189;SDS011;49286;44.460;26.114;2022-11-06T02:43:28;56.58;;;38.95;;
63189;SDS011;49286;44.460;26.114;2022-11-06T02:49:21;78.90;;;44.45;;
63189;SDS011;49286;44.460;26.114;2022-11-06T02:51:49;60.10;;;43.00;;
63189;SDS011;49286;44.460;26.114;2022-11-06T03:04:02;74.45;;;42.78;;
63189;SDS011;49286;44.460;26.114;2022-11-06T03:09:21;72.32;;;44.35;;
63189;SDS011;49286;44.460;26.114;2022-11-06T03:17:58;64.53;;;38.63;;
63189;SDS011;49286;44.460;26.114;2022-11-06T03:26:37;68.00;;;39.83;;
63189;SDS011;49286;44.460;26.114;2022-11-06T03:34:47;72.28;;;39.90;;
63189;SDS011;49286;44.460;26.114;2022-11-06T03:40:50;55.83;;;36.88;;
63189;SDS011;49286;44.460;26.114;2022-11-06T03:46:42;53.78;;;36.78;;
63189;SDS011;49286;44.460;26.114;2022-11-06T03:49:13;54.72;;;35.67;;
63189;SDS011;49286;44.460;26.114;2022-11-06T03:55:07;52.65;;;35.42;;
63189;SDS011;49286;44.460;26.114;2022-11-06T03:57:56;51.65;;;36.05;;
63189;SDS011;49286;44.460;26.114;2022-11-06T04:00:27;47.28;;;35.03;;
63189;SDS011;49286;44.460;26.114;2022-11-06T04:12:06;53.38;;;34.72;;
63189;SDS011;49286;44.460;26.114;2022-11-06T04:30:20;48.17;;;32.88;;
63189;SDS011;49286;44.460;26.114;2022-11-06T04:45:02;46.13;;;31.23;;
63189;SDS011;49286;44.460;26.114;2022-11-06T04:50:53;46.80;;;31.27;;
63189;SDS011;49286;44.460;26.114;2022-11-06T04:53:23;42.08;;;31.58;;
63189;SDS011;49286;44.460;26.114;2022-11-06T04:59:13;46.50;;;29.10;;
63189;SDS011;49286;44.460;26.114;2022-11-06T05:01:40;53.55;;;30.60;;
63189;SDS011;49286;44.460;26.114;2022-11-06T05:07:27;45.97;;;28.33;;
63189;SDS011;49286;44.460;26.114;2022-11-06T05:13:14;45.13;;;30.27;;
63189;SDS011;49286;44.460;26.114;2022-11-06T05:19:01;44.35;;;29.42;;
63189;SDS011;49286;44.460;26.114;2022-11-06T05:24:49;52.17;;;32.17;;
63189;SDS011;49286;44.460;26.114;2022-11-06T05:30:51;63.03;;;28.27;;
63189;SDS011;49286;44.460;26.114;2022-11-06T05:36:38;52.20;;;27.67;;
63189;SDS011;49286;44.460;26.114;2022-11-06T05:42:25;50.55;;;28.80;;
63189;SDS011;49286;44.460;26.114;2022-11-06T05:48:13;38.65;;;24.83;;
63189;SDS011;49286;44.460;26.114;2022-11-06T05:54:00;62.17;;;26.33;;
63189;SDS011;49286;44.460;26.114;2022-11-06T05:59:32;47.03;;;24.52;;
63189;SDS011;49286;44.460;26.114;2022-11-06T06:01:58;49.45;;;25.50;;
63189;SDS011;49286;44.460;26.114;2022-11-06T06:04:24;48.40;;;26.88;;
63189;SDS011;49286;44.460;26.114;2022-11-06T06:06:49;41.63;;;24.20;;
63189;SDS011;49286;44.460;26.114;2022-11-06T06:12:39;46.55;;;24.77;;
63189;SDS011;49286;44.460;26.114;2022-11-06T06:15:11;47.28;;;26.33;;
63189;SDS011;49286;44.460;26.114;2022-11-06T06:17:39;54.28;;;25.15;;
63189;SDS011;49286;44.460;26.114;2022-11-06T06:20:04;50.83;;;25.75;;
63189;SDS011;49286;44.460;26.114;2022-11-06T06:22:30;31.15;;;22.30;;
63189;SDS011;49286;44.460;26.114;2022-11-06T06:24:56;40.15;;;23.85;;
63189;SDS011;49286;44.460;26.114;2022-11-06T06:27:36;50.25;;;24.48;;
63189;SDS011;49286;44.460;26.114;2022-11-06T06:30:02;37.22;;;22.80;;
63189;SDS011;49286;44.460;26.114;2022-11-06T06:32:28;44.78;;;23.58;;
63189;SDS011;49286;44.460;26.114;2022-11-06T06:35:04;34.00;;;22.27;;
63189;SDS011;49286;44.460;26.114;2022-11-06T06:37:30;33.95;;;24.10;;
63189;SDS011;49286;44.460;26.114;2022-11-06T06:40:03;36.78;;;24.15;;
63189;SDS011;49286;44.460;26.114;2022-11-06T06:42:29;42.80;;;24.58;;
63189;SDS011;49286;44.460;26.114;2022-11-06T06:44:55;39.90;;;23.20;;
63189;SDS011;49286;44.460;26.114;2022-11-06T06:47:22;47.08;;;23.08;;
63189;SDS011;49286;44.460;26.114;2022-11-06T06:53:09;38.50;;;22.75;;
63189;SDS011;49286;44.460;26.114;2022-11-06T06:55:35;35.17;;;21.65;;
63189;SDS011;49286;44.460;26.114;2022-11-06T07:01:22;36.33;;;23.58;;
63189;SDS011;49286;44.460;26.114;2022-11-06T07:07:10;29.35;;;20.80;;
63189;SDS011;49286;44.460;26.114;2022-11-06T07:13:03;38.65;;;24.45;;
63189;SDS011;49286;44.460;26.114;2022-11-06T07:15:29;49.23;;;22.70;;
63189;SDS011;49286;44.460;26.114;2022-11-06T07:21:23;41.50;;;23.55;;
63189;SDS011;49286;44.460;26.114;2022-11-06T07:27:10;45.03;;;22.73;;
63189;SDS011;49286;44.460;26.114;2022-11-06T07:33:00;35.60;;;21.73;;
63189;SDS011;49286;44.460;26.114;2022-11-06T07:38:48;33.72;;;21.98;;
63189;SDS011;49286;44.460;26.114;2022-11-06T07:41:14;39.20;;;22.90;;
63189;SDS011;49286;44.460;26.114;2022-11-06T07:47:01;40.30;;;22.88;;
63189;SDS011;49286;44.460;26.114;2022-11-06T07:59:25;37.90;;;20.63;;
63189;SDS011;49286;44.460;26.114;2022-11-06T08:01:50;38.38;;;21.77;;
63189;SDS011;49286;44.460;26.114;2022-11-06T08:17:29;32.55;;;20.60;;
63189;SDS011;49286;44.460;26.114;2022-11-06T08:19:55;42.63;;;22.45;;
63189;SDS011;49286;44.460;26.114;2022-11-06T08:22:21;29.38;;;18.33;;
63189;SDS011;49286;44.460;26.114;2022-11-06T08:28:08;40.85;;;20.75;;
63189;SDS011;49286;44.460;26.114;2022-11-06T08:30:51;34.35;;;20.67;;
63189;SDS011;49286;44.460;26.114;2022-11-06T08:33:17;44.70;;;20.48;;
63189;SDS011;49286;44.460;26.114;2022-11-06T08:39:06;36.17;;;18.17;;
63189;SDS011;49286;44.460;26.114;2022-11-06T08:44:53;28.50;;;20.10;;
63189;SDS011;49286;44.460;26.114;2022-11-06T08:50:40;25.75;;;18.27;;
63189;SDS011;49286;44.460;26.114;2022-11-06T08:56:28;36.38;;;19.92;;
63189;SDS011;49286;44.460;26.114;2022-11-06T09:02:15;37.97;;;20.30;;
63189;SDS011;49286;44.460;26.114;2022-11-06T09:08:02;28.42;;;18.17;;
63189;SDS011;49286;44.460;26.114;2022-11-06T09:10:28;33.72;;;19.45;;
63189;SDS011;49286;44.460;26.114;2022-11-06T09:16:15;26.45;;;19.20;;
63189;SDS011;49286;44.460;26.114;2022-11-06T09:28:32;30.67;;;21.85;;
63189;SDS011;49286;44.460;26.114;2022-11-06T09:34:19;26.17;;;19.80;;
63189;SDS011;49286;44.460;26.114;2022-11-06T09:40:07;30.48;;;19.48;;
63189;SDS011;49286;44.460;26.114;2022-11-06T09:58:34;31.48;;;21.10;;
63189;SDS011;49286;44.460;26.114;2022-11-06T10:01:19;32.90;;;19.73;;
63189;SDS011;49286;44.460;26.114;2022-11-06T10:03:56;32.08;;;19.30;;
63189;SDS011;49286;44.460;26.114;2022-11-06T10:09:45;31.30;;;21.77;;
63189;SDS011;49286;44.460;26.114;2022-11-06T10:15:33;37.72;;;21.35;;
63189;SDS011;49286;44.460;26.114;2022-11-06T10:27:01;36.28;;;21.38;;
63189;SDS011;49286;44.460;26.114;2022-11-06T10:35:41;29.58;;;20.17;;
63189;SDS011;49286;44.460;26.114;2022-11-06T10:41:39;30.95;;;20.38;;
63189;SDS011;49286;44.460;26.114;2022-11-06T11:00:29;37.92;;;19.90;;
63189;SDS011;49286;44.460;26.114;2022-11-06T11:06:17;38.58;;;19.88;;
63189;SDS011;49286;44.460;26.114;2022-11-06T11:08:43;35.10;;;19.45;;
63189;SDS011;49286;44.460;26.114;2022-11-06T11:14:32;35.08;;;19.38;;
63189;SDS011;49286;44.460;26.114;2022-11-06T11:20:30;35.33;;;19.02;;
63189;SDS011;49286;44.460;26.114;2022-11-06T11:23:22;45.78;;;19.45;;
63189;SDS011;49286;44.460;26.114;2022-11-06T11:35:10;33.08;;;18.13;;
63189;SDS011;49286;44.460;26.114;2022-11-06T11:41:04;33.20;;;18.13;;
63189;SDS011;49286;44.460;26.114;2022-11-06T11:46:57;27.67;;;16.30;;
63189;SDS011;49286;44.460;26.114;2022-11-06T11:52:48;39.92;;;15.82;;
63189;SDS011;49286;44.460;26.114;2022-11-06T11:55:17;33.63;;;17.13;;
63189;SDS011;49286;44.460;26.114;2022-11-06T12:01:07;26.60;;;16.95;;
63189;SDS011;49286;44.460;26.114;2022-11-06T12:06:17;27.65;;;15.93;;
63189;SDS011;49286;44.460;26.114;2022-11-06T12:08:50;32.75;;;17.17;;
63189;SDS011;49286;44.460;26.114;2022-11-06T12:14:39;34.22;;;15.30;;
63189;SDS011;49286;44.460;26.114;2022-11-06T12:20:37;39.10;;;15.23;;
63189;SDS011;49286;44.460;26.114;2022-11-06T12:29:34;37.25;;;15.05;;
63189;SDS011;49286;44.460;26.114;2022-11-06T12:35:30;25.75;;;14.43;;
63189;SDS011;49286;44.460;26.114;2022-11-06T12:44:45;17.08;;;13.93;;
63189;SDS011;49286;44.460;26.114;2022-11-06T12:56:31;40.03;;;17.08;;
63189;SDS011;49286;44.460;26.114;2022-11-06T13:08:57;29.13;;;14.95;;
63189;SDS011;49286;44.460;26.114;2022-11-06T13:19:20;38.60;;;14.00;;
63189;SDS011;49286;44.460;26.114;2022-11-06T13:22:03;23.35;;;15.00;;
63189;SDS011;49286;44.460;26.114;2022-11-06T13:24:40;26.25;;;15.93;;
63189;SDS011;49286;44.460;26.114;2022-11-06T13:27:27;31.95;;;15.40;;
63189;SDS011;49286;44.460;26.114;2022-11-06T13:30:10;34.17;;;14.57;;
63189;SDS011;49286;44.460;26.114;2022-11-06T13:32:40;28.98;;;15.65;;
63189;SDS011;49286;44.460;26.114;2022-11-06T13:35:12;25.23;;;14.80;;
63189;SDS011;49286;44.460;26.114;2022-11-06T13:37:41;26.42;;;15.40;;
63189;SDS011;49286;44.460;26.114;2022-11-06T13:40:27;31.73;;;14.32;;
63189;SDS011;49286;44.460;26.114;2022-11-06T13:43:04;25.73;;;14.38;;
63189;SDS011;49286;44.460;26.114;2022-11-06T13:45:47;39.05;;;15.05;;
63189;SDS011;49286;44.460;26.114;2022-11-06T13:48:22;26.85;;;15.43;;
63189;SDS011;49286;44.460;26.114;2022-11-06T13:51:05;19.77;;;14.63;;
63189;SDS011;49286;44.460;26.114;2022-11-06T13:53:43;23.92;;;14.75;;
63189;SDS011;49286;44.460;26.114;2022-11-06T13:56:34;26.52;;;13.82;;
63189;SDS011;49286;44.460;26.114;2022-11-06T14:13:37;26.25;;;13.38;;
63189;SDS011;49286;44.460;26.114;2022-11-06T14:18:31;26.75;;;15.55;;
63189;SDS011;49286;44.460;26.114;2022-11-06T14:23:54;24.80;;;14.55;;
63189;SDS011;49286;44.460;26.114;2022-11-06T14:26:41;31.88;;;18.00;;
63189;SDS011;49286;44.460;26.114;2022-11-06T14:34:30;25.98;;;15.57;;
63189;SDS011;49286;44.460;26.114;2022-11-06T14:36:57;31.80;;;15.85;;
63189;SDS011;49286;44.460;26.114;2022-11-06T14:42:15;34.15;;;17.05;;
63189;SDS011;49286;44.460;26.114;2022-11-06T14:47:22;30.20;;;16.85;;
63189;SDS011;49286;44.460;26.114;2022-11-06T14:52:47;22.50;;;14.90;;
63189;SDS011;49286;44.460;26.114;2022-11-06T14:55:20;25.52;;;15.88;;
63189;SDS011;49286;44.460;26.114;2022-11-06T14:57:54;27.95;;;17.50;;
63189;SDS011;49286;44.460;26.114;2022-11-06T15:03:15;20.20;;;15.05;;
63189;SDS011;49286;44.460;26.114;2022-11-06T15:05:45;26.85;;;14.50;;
63189;SDS011;49286;44.460;26.114;2022-11-06T15:08:11;29.92;;;16.40;;
63189;SDS011;49286;44.460;26.114;2022-11-06T15:13:29;27.02;;;15.55;;
63189;SDS011;49286;44.460;26.114;2022-11-06T15:15:56;25.27;;;16.20;;
63189;SDS011;49286;44.460;26.114;2022-11-06T15:18:27;29.20;;;15.80;;
63189;SDS011;49286;44.460;26.114;2022-11-06T15:20:58;26.10;;;16.70;;
63189;SDS011;49286;44.460;26.114;2022-11-06T15:26:23;28.13;;;14.70;;
63189;SDS011;49286;44.460;26.114;2022-11-06T15:31:45;20.17;;;15.32;;
63189;SDS011;49286;44.460;26.114;2022-11-06T15:34:25;27.05;;;14.40;;
63189;SDS011;49286;44.460;26.114;2022-11-06T15:36:56;26.17;;;13.18;;
63189;SDS011;49286;44.460;26.114;2022-11-06T15:41:53;31.92;;;15.45;;
63189;SDS011;49286;44.460;26.114;2022-11-06T15:44:20;32.92;;;15.52;;
63189;SDS011;49286;44.460;26.114;2022-11-06T15:46:52;25.75;;;14.85;;
63189;SDS011;49286;44.460;26.114;2022-11-06T15:49:22;23.48;;;15.18;;
63189;SDS011;49286;44.460;26.114;2022-11-06T15:51:49;24.25;;;15.60;;
63189;SDS011;49286;44.460;26.114;2022-11-06T15:57:02;22.77;;;15.05;;
63189;SDS011;49286;44.460;26.114;2022-11-06T15:59:40;45.33;;;32.55;;
63189;SDS011;49286;44.460;26.114;2022-11-06T16:02:16;26.75;;;21.02;;
63189;SDS011;49286;44.460;26.114;2022-11-06T16:04:43;26.90;;;16.58;;
63189;SDS011;49286;44.460;26.114;2022-11-06T16:07:10;24.92;;;14.23;;
63189;SDS011;49286;44.460;26.114;2022-11-06T16:09:38;19.40;;;13.35;;
63189;SDS011;49286;44.460;26.114;2022-11-06T16:12:06;25.90;;;16.63;;
63189;SDS011;49286;44.460;26.114;2022-11-06T16:14:39;25.73;;;13.37;;
63189;SDS011;49286;44.460;26.114;2022-11-06T16:17:21;33.50;;;14.35;;
63189;SDS011;49286;44.460;26.114;2022-11-06T16:19:49;24.20;;;13.70;;
63189;SDS011;49286;44.460;26.114;2022-11-06T16:22:19;36.17;;;14.10;;
63189;SDS011;49286;44.460;26.114;2022-11-06T16:24:53;21.67;;;14.93;;
63189;SDS011;49286;44.460;26.114;2022-11-06T16:27:22;26.58;;;14.98;;
63189;SDS011;49286;44.460;26.114;2022-11-06T16:29:54;24.15;;;13.88;;
63189;SDS011;49286;44.460;26.114;2022-11-06T16:32:26;30.17;;;15.45;;
63189;SDS011;49286;44.460;26.114;2022-11-06T16:34:53;30.38;;;14.05;;
63189;SDS011;49286;44.460;26.114;2022-11-06T16:39:52;28.60;;;13.13;;
63189;SDS011;49286;44.460;26.114;2022-11-06T16:44:46;25.55;;;13.57;;
63189;SDS011;49286;44.460;26.114;2022-11-06T16:47:23;22.42;;;13.52;;
63189;SDS011;49286;44.460;26.114;2022-11-06T16:49:49;15.65;;;11.85;;
63189;SDS011;49286;44.460;26.114;2022-11-06T16:55:36;19.88;;;12.90;;
63189;SDS011;49286;44.460;26.114;2022-11-06T17:00:39;22.83;;;12.02;;
63189;SDS011;49286;44.460;26.114;2022-11-06T17:03:06;19.70;;;12.30;;
63189;SDS011;49286;44.460;26.114;2022-11-06T17:05:42;22.42;;;11.48;;
63189;SDS011;49286;44.460;26.114;2022-11-06T17:13:21;19.23;;;12.57;;
63189;SDS011;49286;44.460;26.114;2022-11-06T17:15:59;27.30;;;12.48;;
63189;SDS011;49286;44.460;26.114;2022-11-06T17:18:30;33.50;;;13.05;;
63189;SDS011;49286;44.460;26.114;2022-11-06T17:20:58;26.05;;;13.27;;
63189;SDS011;49286;44.460;26.114;2022-11-06T17:23:25;30.23;;;12.95;;
63189;SDS011;49286;44.460;26.114;2022-11-06T17:25:56;19.92;;;10.57;;
63189;SDS011;49286;44.460;26.114;2022-11-06T17:28:43;27.10;;;12.65;;
63189;SDS011;49286;44.460;26.114;2022-11-06T17:31:09;18.77;;;12.05;;
63189;SDS011;49286;44.460;26.114;2022-11-06T17:33:36;21.23;;;13.07;;
63189;SDS011;49286;44.460;26.114;2022-11-06T17:36:02;22.77;;;12.93;;
63189;SDS011;49286;44.460;26.114;2022-11-06T17:38:27;25.85;;;13.48;;
63189;SDS011;49286;44.460;26.114;2022-11-06T17:40:53;17.70;;;11.45;;
63189;SDS011;49286;44.460;26.114;2022-11-06T17:43:18;22.27;;;14.40;;
63189;SDS011;49286;44.460;26.114;2022-11-06T17:45:44;22.73;;;13.15;;
63189;SDS011;49286;44.460;26.114;2022-11-06T17:48:11;22.27;;;11.07;;
63189;SDS011;49286;44.460;26.114;2022-11-06T17:50:37;21.48;;;10.32;;
63189;SDS011;49286;44.460;26.114;2022-11-06T17:53:38;25.80;;;12.05;;
63189;SDS011;49286;44.460;26.114;2022-11-06T17:56:04;19.85;;;11.52;;
63189;SDS011;49286;44.460;26.114;2022-11-06T17:58:31;23.90;;;10.13;;
63189;SDS011;49286;44.460;26.114;2022-11-06T18:01:07;21.20;;;10.77;;
63189;SDS011;49286;44.460;26.114;2022-11-06T18:03:35;20.23;;;10.40;;
63189;SDS011;49286;44.460;26.114;2022-11-06T18:06:11;20.73;;;8.48;;
63189;SDS011;49286;44.460;26.114;2022-11-06T18:08:37;13.95;;;7.60;;
63189;SDS011;49286;44.460;26.114;2022-11-06T18:11:03;18.35;;;9.02;;
63189;SDS011;49286;44.460;26.114;2022-11-06T18:13:30;12.80;;;7.32;;
63189;SDS011;49286;44.460;26.114;2022-11-06T18:15:56;18.33;;;7.97;;
63189;SDS011;49286;44.460;26.114;2022-11-06T18:18:21;19.13;;;7.25;;
63189;SDS011;49286;44.460;26.114;2022-11-06T18:20:47;13.05;;;6.85;;
63189;SDS011;49286;44.460;26.114;2022-11-06T18:23:13;18.73;;;8.77;;
63189;SDS011;49286;44.460;26.114;2022-11-06T18:25:38;17.88;;;7.78;;
63189;SDS011;49286;44.460;26.114;2022-11-06T18:28:04;13.88;;;8.20;;
63189;SDS011;49286;44.460;26.114;2022-11-06T18:30:30;13.73;;;6.63;;
63189;SDS011;49286;44.460;26.114;2022-11-06T18:32:56;15.80;;;7.93;;
63189;SDS011;49286;44.460;26.114;2022-11-06T18:35:22;14.50;;;7.00;;
63189;SDS011;49286;44.460;26.114;2022-11-06T18:37:48;21.17;;;6.90;;
63189;SDS011;49286;44.460;26.114;2022-11-06T18:40:13;20.33;;;7.07;;
63189;SDS011;49286;44.460;26.114;2022-11-06T18:42:39;21.92;;;7.78;;
63189;SDS011;49286;44.460;26.114;2022-11-06T18:45:05;15.32;;;7.03;;
63189;SDS011;49286;44.460;26.114;2022-11-06T18:47:31;12.80;;;6.93;;
63189;SDS011;49286;44.460;26.114;2022-11-06T18:49:56;26.98;;;8.55;;
63189;SDS011;49286;44.460;26.114;2022-11-06T18:52:22;20.40;;;7.72;;
63189;SDS011;49286;44.460;26.114;2022-11-06T18:54:47;22.15;;;7.95;;
63189;SDS011;49286;44.460;26.114;2022-11-06T18:57:13;22.50;;;9.73;;
63189;SDS011;49286;44.460;26.114;2022-11-06T18:59:38;16.98;;;7.35;;
63189;SDS011;49286;44.460;26.114;2022-11-06T19:02:04;16.63;;;8.10;;
63189;SDS011;49286;44.460;26.114;2022-11-06T19:04:29;15.32;;;8.82;;
63189;SDS011;49286;44.460;26.114;2022-11-06T19:06:55;14.20;;;8.65;;
63189;SDS011;49286;44.460;26.114;2022-11-06T19:09:20;19.20;;;9.45;;
63189;SDS011;49286;44.460;26.114;2022-11-06T19:11:46;17.35;;;8.93;;
63189;SDS011;49286;44.460;26.114;2022-11-06T19:14:13;16.30;;;7.30;;
63189;SDS011;49286;44.460;26.114;2022-11-06T19:16:39;15.73;;;8.30;;
63189;SDS011;49286;44.460;26.114;2022-11-06T19:19:04;14.35;;;9.25;;
63189;SDS011;49286;44.460;26.114;2022-11-06T19:21:30;19.90;;;9.70;;
63189;SDS011;49286;44.460;26.114;2022-11-06T19:23:57;19.63;;;10.10;;
63189;SDS011;49286;44.460;26.114;2022-11-06T19:26:26;13.40;;;8.38;;
63189;SDS011;49286;44.460;26.114;2022-11-06T19:28:52;15.77;;;9.20;;
63189;SDS011;49286;44.460;26.114;2022-11-06T19:31:18;26.95;;;9.10;;
63189;SDS011;49286;44.460;26.114;2022-11-06T19:33:45;15.88;;;8.85;;
63189;SDS011;49286;44.460;26.114;2022-11-06T19:36:11;18.58;;;9.32;;
63189;SDS011;49286;44.460;26.114;2022-11-06T19:38:36;19.63;;;9.75;;
63189;SDS011;49286;44.460;26.114;2022-11-06T19:41:02;20.77;;;10.65;;
63189;SDS011;49286;44.460;26.114;2022-11-06T19:43:29;16.02;;;9.60;;
63189;SDS011;49286;44.460;26.114;2022-11-06T19:46:01;21.95;;;8.38;;
63189;SDS011;49286;44.460;26.114;2022-11-06T19:48:28;13.63;;;9.55;;
63189;SDS011;49286;44.460;26.114;2022-11-06T19:50:54;21.77;;;9.52;;
63189;SDS011;49286;44.460;26.114;2022-11-06T19:53:20;16.02;;;9.05;;
63189;SDS011;49286;44.460;26.114;2022-11-06T19:55:47;18.92;;;9.25;;
63189;SDS011;49286;44.460;26.114;2022-11-06T19:58:14;26.48;;;8.88;;
63189;SDS011;49286;44.460;26.114;2022-11-06T20:00:40;17.85;;;9.43;;
63189;SDS011;49286;44.460;26.114;2022-11-06T20:03:06;17.10;;;8.27;;
63189;SDS011;49286;44.460;26.114;2022-11-06T20:05:32;23.58;;;9.85;;
63189;SDS011;49286;44.460;26.114;2022-11-06T20:07:57;12.60;;;7.60;;
63189;SDS011;49286;44.460;26.114;2022-11-06T20:10:23;15.18;;;8.98;;
63189;SDS011;49286;44.460;26.114;2022-11-06T20:12:48;14.20;;;8.95;;
63189;SDS011;49286;44.460;26.114;2022-11-06T20:15:14;20.25;;;9.05;;
63189;SDS011;49286;44.460;26.114;2022-11-06T20:17:39;21.27;;;10.40;;
63189;SDS011;49286;44.460;26.114;2022-11-06T20:20:05;19.02;;;8.30;;
63189;SDS011;49286;44.460;26.114;2022-11-06T20:22:31;15.65;;;9.23;;
63189;SDS011;49286;44.460;26.114;2022-11-06T20:24:56;25.50;;;8.27;;
63189;SDS011;49286;44.460;26.114;2022-11-06T20:27:22;17.13;;;8.93;;
63189;SDS011;49286;44.460;26.114;2022-11-06T20:29:47;22.00;;;9.35;;
63189;SDS011;49286;44.460;26.114;2022-11-06T20:32:13;15.90;;;9.38;;
63189;SDS011;49286;44.460;26.114;2022-11-06T20:34:38;13.35;;;7.82;;
63189;SDS011;49286;44.460;26.114;2022-11-06T20:37:04;13.10;;;8.00;;
63189;SDS011;49286;44.460;26.114;2022-11-06T20:39:29;16.92;;;8.73;;
63189;SDS011;49286;44.460;26.114;2022-11-06T20:41:55;16.52;;;8.32;;
63189;SDS011;49286;44.460;26.114;2022-11-06T20:44:21;15.70;;;8.27;;
63189;SDS011;49286;44.460;26.114;2022-11-06T20:46:46;14.27;;;7.35;;
63189;SDS011;49286;44.460;26.114;2022-11-06T20:49:12;23.75;;;10.23;;
63189;SDS011;49286;44.460;26.114;2022-11-06T20:51:37;17.00;;;7.80;;
63189;SDS011;49286;44.460;26.114;2022-11-06T20:54:03;23.35;;;8.10;;
63189;SDS011;49286;44.460;26.114;2022-11-06T20:56:29;18.65;;;7.40;;
63189;SDS011;49286;44.460;26.114;2022-11-06T20:58:54;17.98;;;8.75;;
63189;SDS011;49286;44.460;26.114;2022-11-06T21:01:22;17.25;;;7.05;;
63189;SDS011;49286;44.460;26.114;2022-11-06T21:03:49;10.35;;;7.32;;
63189;SDS011;49286;44.460;26.114;2022-11-06T21:06:16;14.48;;;8.18;;
63189;SDS011;49286;44.460;26.114;2022-11-06T21:08:43;12.95;;;8.27;;
63189;SDS011;49286;44.460;26.114;2022-11-06T21:13:37;14.35;;;7.85;;
63189;SDS011;49286;44.460;26.114;2022-11-06T21:16:06;23.25;;;7.75;;
63189;SDS011;49286;44.460;26.114;2022-11-06T21:18:34;22.60;;;7.93;;
63189;SDS011;49286;44.460;26.114;2022-11-06T21:21:01;25.67;;;7.18;;
63189;SDS011;49286;44.460;26.114;2022-11-06T21:23:27;11.55;;;7.45;;
63189;SDS011;49286;44.460;26.114;2022-11-06T21:25:53;16.65;;;7.75;;
63189;SDS011;49286;44.460;26.114;2022-11-06T21:28:18;17.13;;;8.13;;
63189;SDS011;49286;44.460;26.114;2022-11-06T21:30:45;17.15;;;7.80;;
63189;SDS011;49286;44.460;26.114;2022-11-06T21:33:12;13.07;;;6.88;;
63189;SDS011;49286;44.460;26.114;2022-11-06T21:35:38;12.05;;;6.75;;
63189;SDS011;49286;44.460;26.114;2022-11-06T21:38:05;18.50;;;8.32;;
63189;SDS011;49286;44.460;26.114;2022-11-06T21:40:31;14.77;;;6.90;;
63189;SDS011;49286;44.460;26.114;2022-11-06T21:42:57;9.88;;;4.80;;
63189;SDS011;49286;44.460;26.114;2022-11-06T21:45:23;16.45;;;6.60;;
63189;SDS011;49286;44.460;26.114;2022-11-06T21:47:49;14.77;;;7.32;;
63189;SDS011;49286;44.460;26.114;2022-11-06T21:50:14;14.35;;;6.82;;
63189;SDS011;49286;44.460;26.114;2022-11-06T21:52:43;11.93;;;5.78;;
63189;SDS011;49286;44.460;26.114;2022-11-06T21:55:30;19.65;;;7.43;;
63189;SDS011;49286;44.460;26.114;2022-11-06T21:58:15;16.95;;;6.70;;
63189;SDS011;49286;44.460;26.114;2022-11-06T22:00:41;21.17;;;7.28;;
63189;SDS011;49286;44.460;26.114;2022-11-06T22:03:07;14.30;;;6.40;;
63189;SDS011;49286;44.460;26.114;2022-11-06T22:05:33;13.05;;;6.70;;
63189;SDS011;49286;44.460;26.114;2022-11-06T22:07:58;17.35;;;8.20;;
63189;SDS011;49286;44.460;26.114;2022-11-06T22:10:24;16.90;;;6.68;;
63189;SDS011;49286;44.460;26.114;2022-11-06T22:12:51;16.38;;;6.32;;
63189;SDS011;49286;44.460;26.114;2022-11-06T22:15:16;11.77;;;6.82;;
63189;SDS011;49286;44.460;26.114;2022-11-06T22:17:42;12.40;;;6.85;;
63189;SDS011;49286;44.460;26.114;2022-11-06T22:20:07;18.35;;;7.68;;
63189;SDS011;49286;44.460;26.114;2022-11-06T22:22:33;19.83;;;7.47;;
63189;SDS011;49286;44.460;26.114;2022-11-06T22:24:58;17.85;;;6.70;;
63189;SDS011;49286;44.460;26.114;2022-11-06T22:27:24;15.15;;;7.63;;
63189;SDS011;49286;44.460;26.114;2022-11-06T22:29:49;18.63;;;8.50;;
63189;SDS011;49286;44.460;26.114;2022-11-06T22:32:15;14.70;;;7.07;;
63189;SDS011;49286;44.460;26.114;2022-11-06T22:34:40;19.83;;;7.65;;
63189;SDS011;49286;44.460;26.114;2022-11-06T22:37:06;15.60;;;6.65;;
63189;SDS011;49286;44.460;26.114;2022-11-06T22:39:31;14.00;;;6.80;;
63189;SDS011;49286;44.460;26.114;2022-11-06T22:41:57;13.80;;;8.20;;